Strona główna
METAR-TAF:

METAR-TAF

Lotnisko :

Kirsch Municipal Airport

Sturgis, Michigan, Stany Zjednoczone

Szerokość geograficzna: 41-48-46N, Długość geograficzna: 085-26-21W, wysokość: 282 m

Aktualna obserwacja pogody

Raport powstał 14 minut temu, godzina 20:16 UTC
Wiatr 8 kt od południe
Temperatura 3°C
Wilgotność 52%
Ciśnienie 1027 hPa
Widzialność: 16.1 km
Zachmurzenie całkowite na wysokości 10000 ft

METAR: KIRS 072016Z AUTO 19008KT 10SM OVC100 03/M06 A3034 RMK AO2 T00251061

czas: 15:30 (20:30 UTC)


TAF: brakujący

Obserwacja i prognoza pogody dla ponad 4000 lotnisk (raport METAR i TAF).

Dostępne stacje oznaczono żółtymi i czerwonymi punktami na mapie.

Najedź kursorem aby zobaczyć nazwę stacji.

Kliknij aby zobaczyć obserwacje i prognozy pogody.

Aby zmienić mapę: kliknij na zielony przycisk z czarnym krzyżykiem, aby powiększyć; na zielony przycisk z myślnikiem, aby pomniejszyć; na zielone strzałki, aby przejść do map sąsiednich.


METAR-TAF: